Time;durP1;ratioP1;P1;durP2;ratioP2;P2;SDS_P1;SDS_P2;PMS_P1;PMS_P2;Temp;Humidity;BMP_temperature;BMP_pressure;BME280_temperature;BME280_humidity;BME280_pressure;Samples;Min_cycle;Max_cycle;Signal;HPM_P1;HPM_P2
2021/03/17 00:02:51;;;;;;;12.07;4.93;;;;;;;2.43;64.24;101097.59;8917407;32;20260;-74
2021/03/17 00:08:17;;;;;;;7.00;4.03;;;;;;;2.39;64.41;101102.16;8917741;32;20252;-72
2021/03/17 00:13:38;;;;;;;11.20;4.47;;;;;;;2.35;64.59;101097.88;8917390;32;20312;-73
2021/03/17 00:19:00;;;;;;;11.93;4.40;;;;;;;2.37;64.32;101109.28;8917256;32;20217;-73
2021/03/17 00:24:21;;;;;;;8.13;4.03;;;;;;;2.48;64.41;101112.44;8916980;32;20244;-75
2021/03/17 00:29:42;;;;;;;26.10;10.90;;;;;;;2.52;65.60;101122.00;8917277;32;21448;-72
2021/03/17 00:35:06;;;;;;;20.90;7.93;;;;;;;2.37;66.63;101114.59;8918773;32;20233;-73
2021/03/17 00:40:27;;;;;;;7.40;3.73;;;;;;;2.05;66.87;101115.72;8916766;32;20229;-73
2021/03/17 00:45:48;;;;;;;14.90;6.07;;;;;;;1.97;67.71;101109.78;8916259;32;20730;-73
2021/03/17 00:51:00;;;;;;;8.17;4.73;;;;;;;2.05;68.14;101116.56;8915286;32;20928;-73
2021/03/17 00:56:03;;;;;;;11.17;4.93;;;;;;;2.18;68.11;101124.97;8956397;32;20765;-73
2021/03/17 01:01:13;;;;;;;10.47;5.50;;;;;;;2.31;67.63;101125.44;8977115;32;20820;-73
2021/03/17 01:06:16;;;;;;;16.50;5.93;;;;;;;2.38;67.47;101117.19;8950874;32;20228;-72
2021/03/17 01:11:19;;;;;;;20.20;8.13;;;;;;;2.51;66.92;101127.38;8976907;32;20216;-73
2021/03/17 01:16:21;;;;;;;10.63;5.47;;;;;;;2.52;66.60;101115.81;8976223;32;20231;-73
2021/03/17 01:21:24;;;;;;;26.80;9.10;;;;;;;2.61;66.54;101124.38;8976120;32;20229;-72
2021/03/17 01:26:27;;;;;;;13.77;4.73;;;;;;;2.60;66.39;101119.97;8975558;32;20220;-73
2021/03/17 01:31:29;;;;;;;14.27;4.67;;;;;;;2.64;66.40;101126.06;8976230;32;20248;-75
2021/03/17 01:36:32;;;;;;;11.53;6.10;;;;;;;2.63;66.56;101121.66;8974979;32;20452;-74
2021/03/17 01:41:34;;;;;;;9.07;4.20;;;;;;;2.67;66.49;101125.94;8975906;32;20228;-73
2021/03/17 01:46:37;;;;;;;6.97;3.70;;;;;;;2.54;67.99;101128.16;8975713;32;20216;-72
2021/03/17 01:51:40;;;;;;;6.97;4.20;;;;;;;2.16;69.19;101127.66;8975560;32;20236;-73
2021/03/17 01:56:45;;;;;;;7.27;3.83;;;;;;;1.43;72.29;101125.66;8885633;32;20275;-72
2021/03/17 02:01:47;;;;;;;5.97;3.50;;;;;;;1.49;73.97;101108.72;8914915;32;20230;-71
2021/03/17 02:06:51;;;;;;;8.73;4.37;;;;;;;1.52;74.88;101100.66;8914073;32;20236;-71
2021/03/17 02:12:10;;;;;;;8.43;4.47;;;;;;;1.44;75.90;101103.56;8914521;32;20225;-72
2021/03/17 02:17:19;;;;;;;11.73;5.20;;;;;;;1.67;76.43;101108.13;8913888;32;20221;-72
2021/03/17 02:22:44;;;;;;;14.27;4.80;;;;;;;1.81;76.82;101104.13;8915474;32;20226;-72
2021/03/17 02:28:12;;;;;;;9.70;3.77;;;;;;;1.88;76.89;101113.63;8917002;32;20241;-73
2021/03/17 02:33:46;;;;;;;13.43;4.43;;;;;;;1.71;77.15;101115.03;8913664;32;20282;-71
2021/03/17 02:38:55;;;;;;;7.47;4.30;;;;;;;1.70;77.55;101105.38;8913835;32;20351;-73
2021/03/17 02:44:00;;;;;;;9.80;5.03;;;;;;;1.68;76.30;101117.81;8912751;32;20233;-72
2021/03/17 02:49:10;;;;;;;9.67;3.87;;;;;;;1.65;77.14;101107.31;8913435;32;20903;-71
2021/03/17 02:54:14;;;;;;;11.57;5.13;;;;;;;1.66;77.50;101100.22;8931664;32;20228;-72
2021/03/17 02:59:19;;;;;;;10.83;4.80;;;;;;;1.73;77.30;101099.13;8949098;32;20235;-72
2021/03/17 03:04:24;;;;;;;10.67;3.83;;;;;;;1.69;77.36;101100.13;8909702;32;20227;-73
2021/03/17 03:09:27;;;;;;;13.00;4.10;;;;;;;1.72;77.17;101097.38;8972777;32;20216;-72
2021/03/17 03:14:31;;;;;;;9.40;4.07;;;;;;;1.74;77.34;101108.78;8947282;32;20232;-73
2021/03/17 03:19:39;;;;;;;9.90;4.60;;;;;;;1.78;77.41;101094.50;8946938;32;20220;-72
2021/03/17 03:24:43;;;;;;;12.97;5.10;;;;;;;1.93;77.78;101094.00;8972169;32;20241;-72
2021/03/17 03:29:47;;;;;;;9.87;4.27;;;;;;;1.95;77.68;101102.78;8972302;32;20231;-71
2021/03/17 03:34:50;;;;;;;9.63;4.87;;;;;;;1.99;77.86;101105.31;8972099;32;20725;-72
2021/03/17 03:39:52;;;;;;;7.23;4.90;;;;;;;1.94;77.69;101098.38;9001389;32;20234;-73
2021/03/17 03:44:54;;;;;;;14.50;4.70;;;;;;;1.98;77.55;101096.50;9005259;32;20231;-73
2021/03/17 03:49:59;;;;;;;11.93;5.33;;;;;;;1.97;77.91;101099.19;8974472;32;20217;-73
2021/03/17 03:55:07;;;;;;;9.83;4.60;;;;;;;1.95;77.70;101110.72;8972463;32;20611;-72
2021/03/17 04:00:12;;;;;;;10.27;4.40;;;;;;;1.67;77.97;101112.53;8977601;32;20224;-72
2021/03/17 04:05:19;;;;;;;10.63;4.83;;;;;;;1.81;78.06;101114.75;8977061;32;20224;-72
2021/03/17 04:10:24;;;;;;;11.47;4.40;;;;;;;1.90;77.84;101120.59;8977191;32;21033;-72
2021/03/17 04:15:26;;;;;;;12.87;5.17;;;;;;;1.93;78.23;101117.84;8976863;32;20228;-72
2021/03/17 04:20:32;;;;;;;12.57;5.07;;;;;;;1.93;77.99;101109.91;8977314;32;20221;-72
2021/03/17 04:25:37;;;;;;;8.37;4.60;;;;;;;1.88;77.41;101114.50;8977365;32;20225;-71
2021/03/17 04:30:40;;;;;;;6.53;4.57;;;;;;;1.82;77.05;101114.69;8976447;32;20224;-72
2021/03/17 04:35:45;;;;;;;11.50;4.43;;;;;;;1.77;77.13;101115.78;8976209;32;20247;-73
2021/03/17 04:40:47;;;;;;;8.70;4.53;;;;;;;1.75;77.30;101121.09;8974990;32;20236;-72
2021/03/17 04:45:50;;;;;;;8.07;4.93;;;;;;;1.80;77.72;101123.63;8950588;32;20232;-71
2021/03/17 04:50:54;;;;;;;9.13;4.17;;;;;;;1.85;77.58;101130.50;8976196;32;20831;-72
2021/03/17 04:55:57;;;;;;;8.77;3.63;;;;;;;1.87;77.61;101149.88;8975683;32;20221;-72
2021/03/17 05:01:04;;;;;;;10.17;3.60;;;;;;;1.85;76.76;101153.47;8976108;32;20312;-72
2021/03/17 05:06:10;;;;;;;8.20;3.70;;;;;;;1.64;76.38;101147.06;8978927;32;20235;-73
2021/03/17 05:11:15;;;;;;;6.20;3.03;;;;;;;1.70;76.55;101146.88;8949476;32;20940;-72
2021/03/17 05:16:19;;;;;;;5.27;3.07;;;;;;;1.75;76.49;101144.94;8974898;32;20228;-74
2021/03/17 05:21:23;;;;;;;5.53;2.50;;;;;;;1.80;76.71;101143.00;8975682;32;20368;-72
2021/03/17 05:26:26;;;;;;;6.13;2.60;;;;;;;1.72;75.79;101148.56;8974289;32;20779;-72
2021/03/17 05:31:30;;;;;;;3.50;2.23;;;;;;;1.81;76.03;101143.88;8949533;32;20220;-72
2021/03/17 05:36:33;;;;;;;6.53;2.80;;;;;;;1.69;75.04;101142.50;8975048;32;20729;-71
2021/03/17 05:41:36;;;;;;;3.83;2.17;;;;;;;1.70;75.54;101136.28;8974883;32;20224;-73
2021/03/17 05:46:41;;;;;;;3.87;2.37;;;;;;;1.58;75.59;101144.63;8975157;32;20244;-72
2021/03/17 05:51:45;;;;;;;4.60;2.63;;;;;;;1.68;75.28;101148.72;8949232;32;20221;-72
2021/03/17 05:56:48;;;;;;;3.93;2.57;;;;;;;1.66;75.36;101138.16;8974587;32;20244;-72
2021/03/17 06:01:51;;;;;;;5.60;2.43;;;;;;;1.68;74.94;101143.44;8975087;32;20228;-72
2021/03/17 06:06:58;;;;;;;4.37;2.50;;;;;;;1.79;74.72;101153.69;8974411;32;20281;-72
2021/03/17 06:12:01;;;;;;;7.60;2.37;;;;;;;1.86;74.95;101149.91;8949105;32;20624;-72
2021/03/17 06:17:12;;;;;;;3.87;2.67;;;;;;;2.01;74.57;101160.00;8948592;32;20725;-73
2021/03/17 06:22:16;;;;;;;11.13;2.60;;;;;;;2.16;75.06;101166.56;8974397;32;20236;-74
2021/03/17 06:27:19;;;;;;;5.20;2.43;;;;;;;2.29;74.51;101162.59;8974184;32;20236;-72
2021/03/17 06:32:23;;;;;;;4.77;2.10;;;;;;;2.35;74.88;101178.28;8975245;32;20221;-73
2021/03/17 06:37:37;;;;;;;8.10;2.90;;;;;;;2.31;73.64;101178.47;8973838;32;20220;-73
2021/03/17 06:42:41;;;;;;;6.03;2.90;;;;;;;2.30;73.82;101177.56;8949816;32;20240;-73
2021/03/17 06:47:43;;;;;;;7.73;3.43;;;;;;;2.30;72.93;101174.91;8984165;32;20231;-73
2021/03/17 06:52:50;;;;;;;7.70;2.67;;;;;;;2.49;73.33;101153.94;8973634;32;20216;-72
2021/03/17 06:57:54;;;;;;;6.40;2.27;;;;;;;2.59;72.92;101163.34;8947827;32;20221;-72
2021/03/17 07:03:00;;;;;;;6.63;3.10;;;;;;;2.55;71.42;101169.69;8973794;32;20216;-72
2021/03/17 07:08:05;;;;;;;10.43;2.60;;;;;;;2.78;72.87;101168.00;8973404;32;20229;-72
2021/03/17 07:13:26;;;;;;;7.43;3.10;;;;;;;3.17;73.27;101163.00;8973083;32;20216;-73
2021/03/17 07:18:31;;;;;;;9.53;3.90;;;;;;;3.45;72.08;101165.44;8973233;32;20853;-74
2021/03/17 07:23:39;;;;;;;5.57;2.80;;;;;;;3.40;70.81;101169.22;8947211;32;20263;-72
2021/03/17 07:29:15;;;;;;;5.55;2.80;;;;;;;3.58;73.06;101184.44;8973286;32;20220;-73
2021/03/17 07:34:25;;;;;;;6.30;3.10;;;;;;;3.73;72.78;101177.69;8977726;32;20229;-73
2021/03/17 07:39:31;;;;;;;4.10;2.22;;;;;;;3.77;71.72;101179.28;8978978;32;20236;-74
2021/03/17 07:44:36;;;;;;;8.05;2.65;;;;;;;3.94;70.58;101191.88;8956677;32;20225;-74
2021/03/17 07:49:41;;;;;;;6.43;2.70;;;;;;;3.85;70.71;101194.91;8978857;32;21488;-73
2021/03/17 07:54:50;;;;;;;5.05;2.42;;;;;;;4.15;70.68;101187.47;8977999;32;20631;-73
2021/03/17 07:59:56;;;;;;;6.07;2.80;;;;;;;3.90;69.93;101203.56;8978419;32;20233;-73
2021/03/17 08:04:59;;;;;;;5.30;2.33;;;;;;;4.12;71.96;101200.91;8977698;32;20736;-74
2021/03/17 08:10:04;;;;;;;7.15;2.35;;;;;;;4.28;72.76;101209.09;8977978;32;20235;-73
2021/03/17 08:15:09;;;;;;;11.25;6.07;;;;;;;4.13;72.24;101205.28;8978405;32;20232;-73
2021/03/17 08:20:19;;;;;;;6.47;3.90;;;;;;;3.94;71.18;101213.16;8977937;32;20227;-73
2021/03/17 08:25:41;;;;;;;3.90;2.42;;;;;;;3.72;68.34;101214.00;8977241;32;20220;-73
2021/03/17 08:30:44;;;;;;;3.03;2.50;;;;;;;3.89;70.03;101215.97;8977989;32;20293;-73
2021/03/17 08:36:10;;;;;;;4.60;3.15;;;;;;;3.90;68.47;101216.88;8977137;32;20250;-73
2021/03/17 08:41:53;;;;;;;8.33;3.03;;;;;;;3.91;67.92;101215.94;8917037;32;20237;-73
2021/03/17 08:46:58;;;;;;;6.63;2.60;;;;;;;3.97;67.97;101213.00;8916229;32;20225;-73
2021/03/17 08:52:06;;;;;;;10.83;3.67;;;;;;;4.04;67.23;101222.50;8916727;32;20340;-73
2021/03/17 08:57:11;;;;;;;4.88;3.67;;;;;;;4.20;66.38;101220.06;8915924;32;20268;-73
2021/03/17 09:02:53;;;;;;;6.67;2.87;;;;;;;4.18;65.59;101224.59;8914944;32;20229;-72
2021/03/17 09:08:06;;;;;;;8.53;2.80;;;;;;;4.38;64.03;101223.75;8924439;32;20225;-73
2021/03/17 09:13:10;;;;;;;6.53;2.87;;;;;;;4.56;62.15;101235.44;8921011;32;21526;-72
2021/03/17 09:18:13;;;;;;;5.33;2.40;;;;;;;4.65;59.95;101229.69;8916115;32;20626;-72
2021/03/17 09:23:38;;;;;;;7.40;2.97;;;;;;;4.98;60.18;101219.38;8914716;32;20225;-74
2021/03/17 09:28:41;;;;;;;4.70;2.20;;;;;;;5.48;57.96;101216.22;8915495;32;20233;-72
2021/03/17 09:33:45;;;;;;;5.22;2.38;;;;;;;5.63;54.65;101214.66;8913952;32;20259;-72
2021/03/17 09:38:49;;;;;;;4.20;1.95;;;;;;;5.72;53.83;101216.88;8915975;32;20344;-72
2021/03/17 09:43:54;;;;;;;4.72;2.08;;;;;;;6.16;51.97;101215.69;8915035;32;20244;-72
2021/03/17 09:49:00;;;;;;;8.02;2.08;;;;;;;6.47;52.36;101214.13;8915222;32;20225;-73
2021/03/17 09:54:06;;;;;;;5.07;2.13;;;;;;;6.93;49.30;101219.81;8914258;32;20251;-72
2021/03/17 09:59:24;;;;;;;4.82;2.20;;;;;;;7.30;49.64;101220.53;8914927;32;20638;-75
2021/03/17 10:04:29;;;;;;;6.88;2.22;;;;;;;7.44;48.02;101217.97;8914581;32;20651;-73
2021/03/17 10:09:34;;;;;;;5.70;2.35;;;;;;;6.88;47.68;101221.84;8914884;32;21731;-73
2021/03/17 10:14:42;;;;;;;2.42;1.70;;;;;;;6.57;47.82;101215.41;8913799;32;20221;-72
2021/03/17 10:19:49;;;;;;;4.78;1.83;;;;;;;6.24;49.67;101223.31;8976299;32;20705;-74
2021/03/17 10:24:53;;;;;;;5.35;1.90;;;;;;;5.99;49.93;101219.19;8977767;32;20232;-72
2021/03/17 10:30:05;;;;;;;2.10;1.92;;;;;;;6.08;49.54;101218.72;8974891;32;20369;-72
2021/03/17 10:35:13;;;;;;;9.38;2.47;;;;;;;6.66;49.72;101230.09;8974576;32;20227;-74
2021/03/17 10:40:25;;;;;;;4.35;2.03;;;;;;;6.31;50.27;101230.94;8974523;32;20227;-72
2021/03/17 10:45:31;;;;;;;4.38;1.88;;;;;;;6.40;50.03;101233.13;8973870;32;20229;-73
2021/03/17 10:50:37;;;;;;;12.30;2.75;;;;;;;6.18;50.84;101228.00;8974474;32;20792;-72
2021/03/17 10:55:39;;;;;;;2.28;2.00;;;;;;;6.03;51.40;101230.56;8937841;32;20222;-73
2021/03/17 11:00:43;;;;;;;3.63;2.35;;;;;;;5.89;52.28;101240.06;8913599;32;20730;-73
2021/03/17 11:05:46;;;;;;;6.70;2.42;;;;;;;5.81;52.60;101236.91;8912456;32;20233;-73
2021/03/17 11:10:57;;;;;;;5.68;2.42;;;;;;;5.67;52.33;101240.22;8913217;32;20718;-73
2021/03/17 11:16:14;;;;;;;4.57;2.42;;;;;;;5.95;52.56;101226.47;8912536;32;20634;-73
2021/03/17 11:21:23;;;;;;;4.28;2.03;;;;;;;6.60;51.87;101234.78;8912836;32;20237;-73
2021/03/17 11:26:30;;;;;;;4.00;2.70;;;;;;;6.93;50.56;101226.00;8912890;32;20311;-73
2021/03/17 11:31:35;;;;;;;4.07;2.22;;;;;;;6.99;50.64;101217.69;8913530;32;20718;-75
2021/03/17 11:36:39;;;;;;;3.53;2.38;;;;;;;7.45;50.62;101223.22;8912769;32;20766;-75
2021/03/17 11:41:44;;;;;;;4.72;2.33;;;;;;;8.06;48.90;101221.59;8912633;32;20230;-75
2021/03/17 11:46:49;;;;;;;5.93;2.50;;;;;;;8.40;47.41;101220.53;8912228;32;20293;-74
2021/03/17 11:51:52;;;;;;;7.05;2.25;;;;;;;8.47;47.83;101233.56;8912531;32;20218;-74
2021/03/17 11:56:58;;;;;;;4.72;2.40;;;;;;;7.80;47.29;101231.13;8911930;32;20241;-74
2021/03/17 12:02:01;;;;;;;6.05;2.90;;;;;;;7.19;49.83;101235.34;8912219;32;20256;-74
2021/03/17 12:07:08;;;;;;;3.30;1.98;;;;;;;7.25;50.95;101228.78;8911388;32;20222;-75
2021/03/17 12:12:11;;;;;;;5.85;2.95;;;;;;;7.03;50.04;101229.94;8912460;32;20268;-75
2021/03/17 12:17:14;;;;;;;3.00;2.10;;;;;;;6.73;51.91;101235.03;8913154;32;20241;-74
2021/03/17 12:22:16;;;;;;;4.40;2.38;;;;;;;6.09;53.38;101222.28;8917267;32;20236;-75
2021/03/17 12:27:18;;;;;;;3.70;2.40;;;;;;;6.19;52.92;101231.53;8927460;32;20248;-75
2021/03/17 12:32:21;;;;;;;3.20;2.30;;;;;;;6.58;53.27;101222.47;8977486;32;20246;-75
2021/03/17 12:37:24;;;;;;;8.70;2.70;;;;;;;6.93;51.88;101223.34;8976900;32;20293;-74
2021/03/17 12:42:29;;;;;;;4.57;2.00;;;;;;;7.79;51.22;101224.06;8951376;32;20285;-75
2021/03/17 12:47:34;;;;;;;4.57;2.53;;;;;;;9.46;47.88;101219.47;8977058;32;20263;-75
2021/03/17 12:52:37;;;;;;;6.28;2.20;;;;;;;9.57;46.23;101218.81;8976992;32;20225;-74
2021/03/17 12:57:40;;;;;;;2.38;2.17;;;;;;;8.72;46.82;101232.97;8891115;32;20240;-75
2021/03/17 13:02:43;;;;;;;5.15;2.30;;;;;;;8.38;47.33;101230.44;8939260;32;20236;-75
2021/03/17 13:07:45;;;;;;;5.88;2.88;;;;;;;7.88;48.80;101226.19;8914439;32;20252;-75
2021/03/17 13:12:49;;;;;;;3.35;2.58;;;;;;;7.53;48.87;101236.19;8913422;32;20235;-75
2021/03/17 13:17:52;;;;;;;3.72;2.50;;;;;;;7.58;49.48;101239.47;8914340;32;20224;-75
2021/03/17 13:22:54;;;;;;;5.70;2.65;;;;;;;8.04;48.35;101238.72;8924472;32;20347;-74
2021/03/17 13:27:57;;;;;;;5.88;2.65;;;;;;;11.32;43.19;101225.88;8913000;32;20233;-74
2021/03/17 13:33:01;;;;;;;4.05;2.20;;;;;;;17.26;33.70;101225.13;8913428;32;20225;-76
2021/03/17 13:38:06;;;;;;;5.85;2.88;;;;;;;19.83;28.26;101213.59;8912302;32;20226;-76
2021/03/17 13:43:08;;;;;;;4.30;2.60;;;;;;;16.38;30.93;101218.94;8913634;32;20630;-75
2021/03/17 13:48:13;;;;;;;2.88;2.00;;;;;;;15.78;32.60;101215.41;8913590;32;20232;-76
2021/03/17 13:53:16;;;;;;;5.50;2.55;;;;;;;18.58;28.19;101223.81;8919756;32;20220;-75
2021/03/17 13:58:21;;;;;;;2.97;2.00;;;;;;;19.56;28.16;101222.84;8972446;32;20217;-74
2021/03/17 14:03:24;;;;;;;4.20;2.17;;;;;;;18.71;26.88;101217.13;8973347;32;20235;-74
2021/03/17 14:08:26;;;;;;;3.00;2.08;;;;;;;20.58;25.70;101218.19;8973363;32;20229;-74
2021/03/17 14:13:28;;;;;;;4.78;2.83;;;;;;;21.25;24.00;101217.97;8947716;32;20916;-75
2021/03/17 14:18:31;;;;;;;6.55;3.38;;;;;;;21.59;22.07;101218.56;8973410;32;20596;-75
2021/03/17 14:23:33;;;;;;;5.53;2.88;;;;;;;20.89;23.10;101213.72;8947159;32;20325;-76
2021/03/17 14:28:36;;;;;;;4.40;2.25;;;;;;;19.19;25.24;101221.22;8972733;32;20233;-77
2021/03/17 14:33:39;;;;;;;2.80;2.03;;;;;;;17.99;25.51;101232.53;8973068;32;20227;-76
2021/03/17 14:38:41;;;;;;;3.40;2.10;;;;;;;13.48;31.30;101244.69;8972686;32;20217;-77
2021/03/17 14:43:45;;;;;;;3.45;2.40;;;;;;;11.07;36.71;101253.59;8971582;32;21515;-76
2021/03/17 14:48:49;;;;;;;3.08;2.50;;;;;;;9.88;39.01;101249.91;8972159;32;20220;-76
2021/03/17 14:53:52;;;;;;;3.83;2.50;;;;;;;9.25;41.60;101256.53;8958919;32;20229;-75
2021/03/17 14:58:54;;;;;;;2.80;2.15;;;;;;;14.16;34.50;101244.63;8911346;32;20230;-76
2021/03/17 15:03:57;;;;;;;5.88;3.03;;;;;;;15.59;30.53;101236.00;8910081;32;20232;-75
2021/03/17 15:09:00;;;;;;;3.42;2.45;;;;;;;16.26;30.07;101239.88;8911582;32;20365;-74
2021/03/17 15:14:02;;;;;;;3.42;2.20;;;;;;;14.03;31.58;101235.81;8911632;32;20252;-74
2021/03/17 15:19:06;;;;;;;4.97;2.65;;;;;;;11.59;36.37;101249.97;8911274;32;20229;-75
2021/03/17 15:24:09;;;;;;;4.45;2.50;;;;;;;12.97;34.44;101244.22;8911277;32;20635;-74
2021/03/17 15:29:12;;;;;;;5.25;2.30;;;;;;;12.63;32.46;101241.44;8910915;32;20233;-75
2021/03/17 15:34:15;;;;;;;13.00;7.25;;;;;;;10.84;35.86;101245.31;8909832;32;20232;-75
2021/03/17 15:39:17;;;;;;;2.40;2.17;;;;;;;10.13;37.93;101251.84;8911693;32;20221;-75
2021/03/17 15:44:22;;;;;;;2.58;2.05;;;;;;;9.85;37.60;101250.09;8912242;32;20280;-75
2021/03/17 15:49:25;;;;;;;4.63;2.63;;;;;;;9.72;37.76;101241.09;8912006;32;20628;-75
2021/03/17 15:54:27;;;;;;;9.10;6.68;;;;;;;9.20;39.32;101249.72;8938596;32;20223;-75
2021/03/17 15:59:30;;;;;;;4.03;3.42;;;;;;;8.80;40.49;101247.66;8977995;32;20227;-76
2021/03/17 16:04:33;;;;;;;5.43;3.80;;;;;;;9.07;39.76;101246.94;8978653;32;21413;-75
2021/03/17 16:09:36;;;;;;;7.13;5.57;;;;;;;9.01;40.61;101258.03;8979028;32;20785;-76
2021/03/17 16:14:39;;;;;;;8.20;3.72;;;;;;;9.42;40.92;101274.25;8977230;32;20228;-75
2021/03/17 16:19:42;;;;;;;4.13;2.85;;;;;;;10.19;38.43;101279.28;8977286;32;20248;-74
2021/03/17 16:24:44;;;;;;;3.78;2.78;;;;;;;9.19;39.71;101282.88;8976318;32;20340;-75
2021/03/17 16:29:47;;;;;;;5.82;3.30;;;;;;;8.45;41.00;101279.16;8977656;32;20212;-76
2021/03/17 16:34:50;;;;;;;4.35;2.92;;;;;;;7.92;41.26;101280.38;8950657;32;20232;-76
2021/03/17 16:39:52;;;;;;;7.30;2.28;;;;;;;7.45;44.13;101295.41;8977145;32;20266;-75
2021/03/17 16:44:54;;;;;;;4.63;2.30;;;;;;;7.64;44.33;101297.09;8976956;32;20332;-75
2021/03/17 16:49:57;;;;;;;4.72;2.88;;;;;;;7.57;45.33;101304.59;8986407;32;20231;-75
2021/03/17 16:55:01;;;;;;;7.22;4.78;;;;;;;7.51;45.94;101320.94;8948171;32;20233;-75
2021/03/17 17:00:08;;;;;;;5.30;4.43;;;;;;;7.37;46.23;101327.03;8915951;32;20229;-75
2021/03/17 17:05:13;;;;;;;6.90;4.47;;;;;;;7.22;46.69;101322.50;8914471;32;20598;-75
2021/03/17 17:10:17;;;;;;;6.93;3.65;;;;;;;7.12;47.62;101338.13;8915944;32;20616;-75
2021/03/17 17:15:20;;;;;;;11.20;6.05;;;;;;;6.80;48.12;101337.06;8915499;32;20240;-75
2021/03/17 17:20:25;;;;;;;19.35;9.80;;;;;;;6.78;48.03;101342.50;8913992;32;20257;-75
2021/03/17 17:25:28;;;;;;;14.40;6.53;;;;;;;6.74;48.69;101350.72;8915190;32;20237;-74
2021/03/17 17:30:30;;;;;;;7.40;5.10;;;;;;;6.66;48.72;101347.56;8913936;32;20228;-74
2021/03/17 17:35:35;;;;;;;9.57;4.88;;;;;;;6.56;48.47;101349.84;8913166;32;20221;-75
2021/03/17 17:40:40;;;;;;;6.65;4.55;;;;;;;6.55;49.32;101364.09;8915524;32;20252;-75
2021/03/17 17:45:43;;;;;;;8.68;5.15;;;;;;;6.49;49.67;101348.41;8918586;32;20226;-75
2021/03/17 17:50:49;;;;;;;9.25;6.10;;;;;;;6.37;50.19;101361.41;8915494;32;20221;-75
2021/03/17 17:55:52;;;;;;;8.25;5.20;;;;;;;6.33;51.31;101366.94;8953709;32;20221;-77
2021/03/17 18:00:54;;;;;;;10.60;5.38;;;;;;;6.43;52.69;101362.91;8975701;32;20784;-76
2021/03/17 18:05:57;;;;;;;10.63;5.40;;;;;;;6.31;53.29;101347.50;8975643;32;20269;-75
2021/03/17 18:11:00;;;;;;;15.82;8.02;;;;;;;6.15;54.58;101350.88;8950304;32;20323;-76
2021/03/17 18:16:03;;;;;;;20.08;8.90;;;;;;;5.89;56.02;101365.41;8975372;32;20225;-75
2021/03/17 18:21:06;;;;;;;15.85;7.80;;;;;;;5.79;56.79;101348.13;8975470;32;20239;-74
2021/03/17 18:26:09;;;;;;;9.40;6.15;;;;;;;5.71;57.18;101342.28;8975491;32;20225;-75
2021/03/17 18:31:11;;;;;;;11.63;6.47;;;;;;;5.56;58.61;101340.28;8975312;32;20236;-74
2021/03/17 18:36:14;;;;;;;7.95;5.43;;;;;;;5.33;59.90;101344.00;8975047;32;20725;-74
2021/03/17 18:41:17;;;;;;;10.65;5.15;;;;;;;4.78;61.62;101363.16;8982750;32;20323;-75
2021/03/17 18:46:19;;;;;;;7.18;5.28;;;;;;;4.71;62.40;101374.97;8995969;32;20231;-74
2021/03/17 18:51:23;;;;;;;6.13;5.33;;;;;;;4.50;63.17;101377.59;8977647;32;20713;-74
2021/03/17 18:56:25;;;;;;;10.02;5.07;;;;;;;4.43;63.49;101369.91;8930446;32;20221;-74
2021/03/17 19:01:28;;;;;;;6.65;5.07;;;;;;;4.50;63.37;101387.34;8918597;32;20213;-75
2021/03/17 19:06:31;;;;;;;7.60;5.00;;;;;;;4.40;63.51;101374.41;8919848;32;20284;-75
2021/03/17 19:11:34;;;;;;;7.90;4.83;;;;;;;4.37;63.49;101387.84;8915326;32;20226;-75
2021/03/17 19:16:37;;;;;;;8.20;5.50;;;;;;;4.30;63.57;101398.75;8912586;32;20338;-74
2021/03/17 19:21:40;;;;;;;7.30;5.57;;;;;;;4.29;63.61;101395.25;8916417;32;20268;-74
2021/03/17 19:26:43;;;;;;;11.43;7.47;;;;;;;4.31;63.42;101413.81;8913747;32;20237;-73
2021/03/17 19:31:46;;;;;;;8.30;5.90;;;;;;;4.30;63.50;101417.38;8919919;32;20877;-75
2021/03/17 19:36:50;;;;;;;6.67;5.13;;;;;;;4.24;63.78;101433.59;8919840;32;20236;-76
2021/03/17 19:42:01;;;;;;;9.98;6.00;;;;;;;4.15;63.93;101434.81;8918744;32;20320;-76
2021/03/17 19:47:06;;;;;;;9.33;5.80;;;;;;;4.04;64.27;101440.53;8918379;32;20617;-75
2021/03/17 19:52:11;;;;;;;8.68;4.88;;;;;;;3.87;64.65;101459.75;8918029;32;20251;-75
2021/03/17 19:57:34;;;;;;;9.15;5.40;;;;;;;3.70;65.19;101470.09;8978573;32;20221;-75
2021/03/17 20:02:56;;;;;;;15.38;8.65;;;;;;;3.69;65.04;101477.22;8980592;32;20741;-74
2021/03/17 20:08:08;;;;;;;20.53;11.50;;;;;;;3.50;65.14;101476.09;8979363;32;20699;-75
2021/03/17 20:13:12;;;;;;;15.93;10.33;;;;;;;3.36;65.44;101484.53;8954248;32;20224;-76
2021/03/17 20:18:38;;;;;;;12.27;7.03;;;;;;;3.17;65.95;101489.59;8979187;32;20319;-75
2021/03/17 20:24:02;;;;;;;9.97;7.40;;;;;;;3.10;66.32;101492.50;8986215;32;20256;-74
2021/03/17 20:29:07;;;;;;;23.10;12.33;;;;;;;3.03;66.24;101500.66;8953270;32;20316;-75
2021/03/17 20:34:14;;;;;;;14.70;9.17;;;;;;;2.93;66.45;101498.34;8951301;32;20284;-75
2021/03/17 20:39:20;;;;;;;15.13;9.40;;;;;;;2.84;66.72;101502.16;8951706;32;20753;-74
2021/03/17 20:44:41;;;;;;;15.17;8.53;;;;;;;2.76;66.92;101496.22;8977531;32;20906;-73
2021/03/17 20:49:44;;;;;;;15.37;7.30;;;;;;;2.69;67.12;101499.97;8977350;32;20217;-75
2021/03/17 20:54:49;;;;;;;10.07;6.57;;;;;;;2.69;67.32;101497.31;8951960;32;20226;-74
2021/03/17 20:59:55;;;;;;;7.67;6.37;;;;;;;2.62;67.51;101494.00;8915481;32;20324;-74
2021/03/17 21:04:58;;;;;;;14.13;7.50;;;;;;;2.53;67.39;101495.13;8919777;32;20810;-74
2021/03/17 21:10:03;;;;;;;9.93;7.33;;;;;;;2.51;67.78;101502.22;8914832;32;20225;-73
2021/03/17 21:15:14;;;;;;;11.13;7.47;;;;;;;2.47;67.70;101497.06;8914533;32;20225;-74
2021/03/17 21:20:19;;;;;;;9.97;6.97;;;;;;;2.44;67.82;101483.88;8915805;32;20236;-74
2021/03/17 21:25:33;;;;;;;11.73;7.30;;;;;;;2.49;68.15;101471.34;8913906;32;21504;-75
2021/03/17 21:30:38;;;;;;;11.67;6.80;;;;;;;2.52;67.83;101481.88;8914176;32;20283;-75
2021/03/17 21:35:59;;;;;;;12.50;7.33;;;;;;;2.52;67.92;101471.25;8915071;32;20253;-74
2021/03/17 21:41:03;;;;;;;12.90;7.20;;;;;;;2.40;67.63;101469.84;8915485;32;21014;-74
2021/03/17 21:46:05;;;;;;;8.87;6.93;;;;;;;2.20;67.88;101477.53;8915144;32;20225;-74
2021/03/17 21:51:09;;;;;;;12.23;7.20;;;;;;;2.06;68.53;101483.22;8902159;32;20236;-74
2021/03/17 21:56:13;;;;;;;10.77;7.20;;;;;;;2.03;68.32;101493.88;8956472;32;20224;-74
2021/03/17 22:01:15;;;;;;;13.03;7.57;;;;;;;1.92;68.60;101487.13;8949732;32;20219;-74
2021/03/17 22:06:18;;;;;;;15.80;7.40;;;;;;;1.87;68.94;101488.16;8975104;32;20229;-74
2021/03/17 22:11:22;;;;;;;17.23;7.57;;;;;;;1.78;69.11;101483.97;8976912;32;20308;-74
2021/03/17 22:16:24;;;;;;;13.83;8.00;;;;;;;1.73;69.04;101486.75;8949510;32;21564;-74
2021/03/17 22:21:27;;;;;;;11.80;8.13;;;;;;;1.64;69.53;101465.78;8974709;32;20873;-75
2021/03/17 22:26:30;;;;;;;10.87;7.70;;;;;;;1.45;70.61;101460.13;8974684;32;20252;-75
2021/03/17 22:31:32;;;;;;;13.07;7.70;;;;;;;1.29;70.94;101472.03;8974901;32;20628;-74
2021/03/17 22:36:35;;;;;;;14.17;8.73;;;;;;;1.01;72.14;101464.72;8974276;32;20639;-74
2021/03/17 22:41:38;;;;;;;15.83;9.33;;;;;;;1.03;72.42;101452.34;8974459;32;20227;-75
2021/03/17 22:46:40;;;;;;;17.77;10.10;;;;;;;1.19;72.02;101442.25;8974193;32;20221;-74
2021/03/17 22:51:42;;;;;;;16.23;9.83;;;;;;;1.37;71.88;101443.56;8974278;32;20225;-74
2021/03/17 22:56:46;;;;;;;18.57;10.40;;;;;;;1.31;71.69;101445.50;8925067;32;20245;-74
2021/03/17 23:01:49;;;;;;;23.13;10.90;;;;;;;1.16;72.29;101452.91;8913107;32;20268;-74
2021/03/17 23:06:53;;;;;;;21.50;11.60;;;;;;;1.28;72.25;101443.78;8912808;32;20640;-74
2021/03/17 23:11:56;;;;;;;21.37;10.53;;;;;;;1.28;72.57;101441.16;8913241;32;20323;-74
2021/03/17 23:17:03;;;;;;;16.60;10.33;;;;;;;1.36;72.32;101435.66;8912847;32;20218;-74
2021/03/17 23:22:06;;;;;;;15.07;8.87;;;;;;;1.27;72.18;101436.78;8913253;32;20227;-75
2021/03/17 23:27:14;;;;;;;15.60;9.70;;;;;;;1.12;71.95;101443.31;8912787;32;20729;-75
2021/03/17 23:32:16;;;;;;;21.83;10.97;;;;;;;1.15;72.12;101437.06;8912994;32;20236;-75
2021/03/17 23:37:21;;;;;;;23.57;13.30;;;;;;;1.11;71.60;101432.78;8911353;32;20225;-75
2021/03/17 23:42:29;;;;;;;24.90;14.87;;;;;;;1.10;71.27;101428.38;8921596;32;20793;-75
2021/03/17 23:47:36;;;;;;;24.97;13.13;;;;;;;1.05;71.56;101437.31;8913022;32;20233;-75
2021/03/17 23:52:39;;;;;;;19.03;12.43;;;;;;;0.94;71.60;101431.41;8912876;32;20253;-75